createdAt,value
2018-01-16T00:01:14.672Z,1.40
2018-01-16T00:04:15.719Z,1.30
2018-01-16T00:07:16.723Z,1.20
2018-01-16T00:10:17.699Z,1.00
2018-01-16T00:13:18.650Z,1.10
2018-01-16T00:16:19.651Z,1.20
2018-01-16T00:19:20.605Z,1.20
2018-01-16T00:22:21.607Z,1.20
2018-01-16T00:25:22.549Z,1.30
2018-01-16T00:28:23.540Z,1.17
2018-01-16T00:31:24.523Z,1.20
2018-01-16T00:34:25.458Z,1.20
2018-01-16T00:37:26.459Z,1.10
2018-01-16T00:40:27.431Z,1.10
2018-01-16T00:43:28.385Z,1.30
2018-01-16T00:46:29.383Z,1.20
2018-01-16T00:49:30.339Z,1.27
2018-01-16T00:52:31.347Z,1.10
2018-01-16T00:55:32.356Z,1.13
2018-01-16T00:58:33.282Z,1.00
2018-01-16T01:01:34.283Z,1.17
2018-01-16T01:04:35.607Z,1.10
2018-01-16T01:07:36.534Z,1.10
2018-01-16T01:10:37.527Z,1.00
2018-01-16T01:13:38.491Z,0.90
2018-01-16T01:16:39.483Z,1.00
2018-01-16T01:19:40.430Z,1.10
2018-01-16T01:22:41.469Z,0.90
2018-01-16T01:25:42.407Z,0.90
2018-01-16T01:28:43.366Z,1.07
2018-01-16T01:31:44.356Z,1.00
2018-01-16T01:34:45.307Z,1.10
2018-01-16T01:37:47.319Z,0.90
2018-01-16T01:40:48.287Z,1.13
2018-01-16T01:43:49.263Z,0.90
2018-01-16T01:46:50.214Z,1.10
2018-01-16T01:49:51.223Z,1.10
2018-01-16T01:52:52.162Z,0.90
2018-01-16T01:55:53.160Z,0.90
2018-01-16T01:58:54.135Z,1.00
2018-01-16T02:01:55.087Z,0.80
2018-01-16T02:04:56.084Z,0.90
2018-01-16T02:07:57.046Z,0.77
2018-01-16T02:10:58.031Z,1.00
2018-01-16T02:13:58.979Z,0.90
2018-01-16T02:16:59.983Z,0.80
2018-01-16T02:20:00.969Z,1.13
2018-01-16T02:23:01.902Z,0.87
2018-01-16T02:26:02.908Z,0.90
2018-01-16T02:29:03.879Z,1.07
2018-01-16T02:32:04.855Z,0.80
2018-01-16T02:35:05.819Z,0.93
2018-01-16T02:38:06.788Z,0.80
2018-01-16T02:41:07.767Z,0.90
2018-01-16T02:44:08.743Z,0.80
2018-01-16T02:47:09.756Z,0.80
2018-01-16T02:50:11.043Z,0.90
2018-01-16T02:53:12.080Z,0.90
2018-01-16T02:56:13.399Z,0.90
2018-01-16T02:59:14.401Z,0.70
2018-01-16T03:02:15.403Z,0.90
2018-01-16T03:05:16.355Z,0.80
2018-01-16T03:08:17.350Z,0.90
2018-01-16T03:11:18.303Z,0.80
2018-01-16T03:14:19.301Z,0.90
2018-01-16T03:17:20.257Z,0.70
2018-01-16T03:20:21.595Z,0.80
2018-01-16T03:23:22.498Z,0.83
2018-01-16T03:26:23.490Z,0.80
2018-01-16T03:29:24.452Z,0.80
2018-01-16T03:32:25.443Z,0.77
2018-01-16T03:35:26.414Z,0.80
2018-01-16T03:38:27.391Z,0.70
2018-01-16T03:41:28.372Z,0.70
2018-01-16T03:44:29.318Z,0.67
2018-01-16T03:47:30.311Z,0.77
2018-01-16T03:50:31.262Z,0.70
2018-01-16T03:53:32.260Z,0.70
2018-01-16T03:56:33.243Z,0.80
2018-01-16T03:59:34.210Z,0.63
2018-01-16T04:02:35.159Z,0.80
2018-01-16T04:05:36.170Z,0.67
2018-01-16T04:08:37.106Z,0.67
2018-01-16T04:11:38.106Z,0.70
2018-01-16T04:14:39.074Z,0.80
2018-01-16T04:17:40.199Z,0.60
2018-01-16T04:20:41.123Z,0.70
2018-01-16T04:23:42.111Z,0.67
2018-01-16T04:26:43.063Z,0.67
2018-01-16T04:29:44.054Z,0.60
2018-01-16T04:32:45.003Z,0.70
2018-01-16T04:35:46.011Z,0.80
2018-01-16T04:38:46.964Z,0.60
2018-01-16T04:41:47.959Z,0.57
2018-01-16T04:44:48.899Z,0.60
2018-01-16T04:47:49.899Z,0.60
2018-01-16T04:50:50.850Z,0.60
2018-01-16T04:53:52.090Z,0.60
2018-01-16T04:56:52.999Z,0.70
2018-01-16T04:59:53.999Z,0.80
2018-01-16T05:02:54.948Z,0.63
2018-01-16T05:05:56.008Z,0.60
2018-01-16T05:08:57.014Z,0.67
2018-01-16T05:11:57.971Z,0.70
2018-01-16T05:15:00.008Z,0.50
2018-01-16T05:18:00.949Z,0.43
2018-01-16T05:21:01.940Z,0.67
2018-01-16T05:24:02.886Z,0.53
2018-01-16T05:27:04.139Z,0.67
2018-01-16T05:30:05.054Z,0.70
2018-01-16T05:33:06.068Z,0.60
2018-01-16T05:36:07.016Z,0.70
2018-01-16T05:39:08.016Z,0.50
2018-01-16T05:42:08.962Z,0.70
2018-01-16T05:45:09.978Z,0.50
2018-01-16T05:48:10.942Z,0.70
2018-01-16T05:51:11.894Z,0.60
2018-01-16T05:54:12.895Z,0.50
2018-01-16T05:57:13.883Z,0.67
2018-01-16T06:00:15.001Z,0.60
2018-01-16T06:03:16.004Z,0.70
2018-01-16T06:06:16.999Z,0.60
2018-01-16T06:09:17.966Z,0.50
2018-01-16T06:12:18.951Z,0.60
2018-01-16T06:15:19.897Z,0.53
2018-01-16T06:18:20.899Z,0.60
2018-01-16T06:21:21.858Z,0.67
2018-01-16T06:24:22.848Z,0.63
2018-01-16T06:27:23.835Z,0.40
2018-01-16T06:30:24.785Z,0.50
2018-01-16T06:33:25.770Z,0.50
2018-01-16T06:36:26.699Z,0.50
2018-01-16T06:39:27.603Z,0.50
2018-01-16T06:42:28.730Z,0.53
2018-01-16T06:45:29.634Z,0.40
2018-01-16T06:48:30.567Z,0.60
2018-01-16T06:51:31.480Z,0.50
2018-01-16T06:54:33.328Z,0.40
2018-01-16T06:57:34.226Z,0.40
2018-01-16T07:00:35.150Z,0.40
2018-01-16T07:03:36.071Z,0.40
2018-01-16T07:06:37.154Z,0.60
2018-01-16T07:09:38.061Z,0.60
2018-01-16T07:12:39.214Z,0.40
2018-01-16T07:15:40.182Z,0.60
2018-01-16T07:18:41.117Z,0.47
2018-01-16T07:21:42.031Z,0.40
2018-01-16T07:24:42.983Z,0.50
2018-01-16T07:27:43.919Z,0.50
2018-01-16T07:30:44.836Z,0.30
2018-01-16T07:33:45.919Z,0.40
2018-01-16T07:36:46.830Z,0.40
2018-01-16T07:39:47.743Z,0.43
2018-01-16T07:42:48.723Z,0.50
2018-01-16T07:45:49.625Z,0.40
2018-01-16T07:48:50.551Z,0.50
2018-01-16T07:51:51.468Z,0.30
2018-01-16T07:54:52.395Z,0.50
2018-01-16T07:57:53.299Z,0.40
2018-01-16T08:00:54.241Z,0.50
2018-01-16T08:03:55.155Z,0.37
2018-01-16T08:06:56.102Z,0.50
2018-01-16T08:09:56.990Z,0.60
2018-01-16T08:12:57.919Z,0.60
2018-01-16T08:15:58.818Z,0.57
2018-01-16T08:18:59.774Z,0.43
2018-01-16T08:22:01.098Z,0.40
2018-01-16T08:25:02.022Z,0.53
2018-01-16T08:28:02.991Z,0.53
2018-01-16T08:31:03.882Z,0.50
2018-01-16T08:34:04.990Z,0.50
2018-01-16T08:37:05.886Z,0.47
2018-01-16T08:40:07.147Z,0.40
2018-01-16T08:43:08.043Z,0.50
2018-01-16T08:46:08.974Z,0.40
2018-01-16T08:49:10.075Z,0.50
2018-01-16T08:52:11.034Z,0.50
2018-01-16T08:55:11.940Z,0.50
2018-01-16T08:58:13.201Z,0.40
2018-01-16T09:01:14.159Z,0.40
2018-01-16T09:04:15.104Z,0.50
2018-01-16T09:07:16.056Z,0.50
2018-01-16T09:10:17.411Z,0.30
2018-01-16T09:13:18.307Z,0.30
2018-01-16T09:16:19.295Z,0.30
2018-01-16T09:19:20.260Z,0.40
2018-01-16T09:22:21.495Z,0.50
2018-01-16T09:25:22.399Z,0.43
2018-01-16T09:28:23.319Z,0.40
2018-01-16T09:31:24.218Z,0.33
2018-01-16T09:34:25.315Z,0.50
2018-01-16T09:37:26.221Z,0.40
2018-01-16T09:40:27.179Z,0.40
2018-01-16T09:43:28.084Z,0.50
2018-01-16T09:46:29.052Z,0.40
2018-01-16T09:49:29.963Z,0.40
2018-01-16T09:52:30.907Z,0.40
2018-01-16T09:55:31.819Z,0.40
2018-01-16T09:58:32.777Z,0.40
2018-01-16T10:01:33.675Z,0.33
2018-01-16T10:04:34.826Z,0.30
2018-01-16T10:07:35.726Z,0.40
2018-01-16T10:10:36.703Z,0.40
2018-01-16T10:13:37.599Z,0.30
2018-01-16T10:16:38.526Z,0.37
2018-01-16T10:19:39.422Z,0.40
2018-01-16T10:22:40.571Z,0.40
2018-01-16T10:25:41.522Z,0.40
2018-01-16T10:28:42.442Z,0.43
2018-01-16T10:31:43.370Z,0.40
2018-01-16T10:34:44.279Z,0.30
2018-01-16T10:37:45.191Z,0.50
2018-01-16T10:40:46.207Z,0.40
2018-01-16T10:43:47.115Z,0.30
2018-01-16T10:46:48.155Z,0.37
2018-01-16T10:49:49.069Z,0.40
2018-01-16T10:52:50.027Z,0.40
2018-01-16T10:55:50.923Z,0.40
2018-01-16T10:58:51.853Z,0.30
2018-01-16T11:01:52.772Z,0.53
2018-01-16T11:04:54.002Z,0.33
2018-01-16T11:07:54.899Z,0.30
2018-01-16T11:10:56.047Z,0.37
2018-01-16T11:13:56.965Z,0.40
2018-01-16T11:16:58.203Z,0.30
2018-01-16T11:19:59.131Z,0.40
2018-01-16T11:23:00.096Z,0.40
2018-01-16T11:26:00.978Z,0.43
2018-01-16T11:29:02.934Z,0.30
2018-01-16T11:32:03.827Z,0.40
2018-01-16T11:35:05.072Z,0.37
2018-01-16T11:38:05.975Z,0.60
2018-01-16T11:41:06.916Z,0.27
2018-01-16T11:44:07.815Z,0.40
2018-01-16T11:47:08.763Z,0.40
2018-01-16T11:50:09.667Z,0.60
2018-01-16T11:53:10.723Z,0.50
2018-01-16T11:56:11.638Z,0.33
2018-01-16T11:59:12.606Z,0.40
2018-01-16T12:02:13.524Z,0.73
2018-01-16T12:05:14.478Z,0.40
2018-01-16T12:08:15.387Z,0.43
2018-01-16T12:11:16.314Z,1.10
2018-01-16T12:14:17.248Z,0.60
2018-01-16T12:17:18.183Z,0.50
2018-01-16T12:20:19.086Z,0.47
2018-01-16T12:23:20.047Z,0.47
2018-01-16T12:26:20.942Z,0.70
2018-01-16T12:29:21.867Z,0.40
2018-01-16T12:32:22.816Z,0.30
2018-01-16T12:35:23.751Z,0.40
2018-01-16T12:38:24.657Z,0.30
2018-01-16T12:41:25.570Z,0.30
2018-01-16T12:44:26.468Z,0.50
2018-01-16T12:47:27.415Z,0.30
2018-01-16T12:50:28.322Z,0.50
2018-01-16T12:53:29.249Z,0.50
2018-01-16T12:56:30.186Z,0.50
2018-01-16T12:59:31.082Z,0.40
2018-01-16T13:02:32.002Z,0.40
2018-01-16T13:05:32.915Z,0.30
2018-01-16T13:08:34.051Z,0.40
2018-01-16T13:11:34.971Z,0.40
2018-01-16T13:14:36.099Z,0.43
2018-01-16T13:17:37.002Z,0.40
2018-01-16T13:20:37.927Z,0.50
2018-01-16T13:23:38.827Z,0.40
2018-01-16T13:26:39.747Z,0.40
2018-01-16T13:29:40.671Z,0.37
2018-01-16T13:32:41.746Z,0.43
2018-01-16T13:35:42.638Z,0.40
2018-01-16T13:38:43.625Z,0.40
2018-01-16T13:41:44.523Z,0.50
2018-01-16T13:44:45.446Z,0.40
2018-01-16T13:47:46.362Z,0.30
2018-01-16T13:50:47.291Z,0.40
2018-01-16T13:53:48.208Z,0.40
2018-01-16T13:56:49.144Z,0.47
2018-01-16T13:59:50.044Z,0.33
2018-01-16T14:02:51.170Z,0.30
2018-01-16T14:05:52.067Z,0.30
2018-01-16T14:08:53.126Z,0.30
2018-01-16T14:11:54.027Z,0.40
2018-01-16T14:14:54.967Z,0.37
2018-01-16T14:17:55.876Z,0.37
2018-01-16T14:20:56.822Z,0.40
2018-01-16T14:23:57.726Z,0.50
2018-01-16T14:26:58.659Z,0.40
2018-01-16T14:29:59.550Z,0.40
2018-01-16T14:33:00.611Z,0.30
2018-01-16T14:36:01.595Z,0.50
2018-01-16T14:39:02.563Z,0.40
2018-01-16T14:42:03.504Z,0.47
2018-01-16T14:45:04.411Z,0.30
2018-01-16T14:48:05.355Z,0.40
2018-01-16T14:51:06.256Z,0.30
2018-01-16T14:54:07.211Z,0.30
2018-01-16T14:57:08.118Z,0.27
2018-01-16T15:00:09.155Z,0.30
2018-01-16T15:03:10.046Z,0.40
2018-01-16T15:06:11.003Z,0.40
2018-01-16T15:09:11.899Z,0.50
2018-01-16T15:12:12.971Z,0.40
2018-01-16T15:15:13.971Z,0.40
2018-01-16T15:18:14.917Z,0.40
2018-01-16T15:21:15.914Z,0.30
2018-01-16T15:24:16.794Z,0.30
2018-01-16T15:27:17.737Z,0.40
2018-01-16T15:30:18.672Z,0.30
2018-01-16T15:33:19.587Z,0.30
2018-01-16T15:36:20.539Z,0.30
2018-01-16T15:39:21.467Z,0.30
2018-01-16T15:42:22.411Z,0.30
2018-01-16T15:45:23.359Z,0.30
2018-01-16T15:48:24.267Z,0.20
2018-01-16T15:51:25.705Z,0.30
2018-01-16T15:54:26.628Z,0.33
2018-01-16T15:57:27.581Z,0.30
2018-01-16T16:00:28.516Z,0.30
2018-01-16T16:03:29.418Z,0.40
2018-01-16T16:06:30.523Z,0.30
2018-01-16T16:09:31.459Z,0.40
2018-01-16T16:12:32.406Z,0.30
2018-01-16T16:15:33.834Z,0.20
2018-01-16T16:18:34.771Z,0.30
2018-01-16T16:21:35.666Z,0.30
2018-01-16T16:24:36.623Z,0.30
2018-01-16T16:27:37.521Z,0.30
2018-01-16T16:30:38.733Z,0.40
2018-01-16T16:33:39.655Z,0.30
2018-01-16T16:36:40.583Z,0.30
2018-01-16T16:39:41.484Z,0.30
2018-01-16T16:42:42.425Z,0.30
2018-01-16T16:45:43.340Z,0.30
2018-01-16T16:48:44.261Z,0.30
2018-01-16T16:51:45.151Z,0.20
2018-01-16T16:54:46.120Z,0.30
2018-01-16T16:57:47.035Z,0.40
2018-01-16T17:00:47.951Z,0.30
2018-01-16T17:03:48.863Z,0.23
2018-01-16T17:06:49.788Z,0.30
2018-01-16T17:09:50.720Z,0.30
2018-01-16T17:12:51.646Z,0.30
2018-01-16T17:15:52.551Z,0.30
2018-01-16T17:18:53.472Z,0.30
2018-01-16T17:21:54.468Z,0.30
2018-01-16T17:24:55.495Z,0.30
2018-01-16T17:27:56.427Z,0.30
2018-01-16T17:30:57.346Z,0.30
2018-01-16T17:33:58.328Z,0.40
2018-01-16T17:36:59.268Z,0.30
2018-01-16T17:40:00.943Z,0.30
2018-01-16T17:43:01.975Z,0.30
2018-01-16T17:46:03.204Z,0.20
2018-01-16T17:49:04.184Z,0.40
2018-01-16T17:52:05.107Z,0.30
2018-01-16T17:55:06.112Z,0.30
2018-01-16T17:58:07.079Z,0.20
2018-01-16T18:01:08.055Z,0.40
2018-01-16T18:04:09.059Z,0.30
2018-01-16T18:07:09.999Z,0.30
2018-01-16T18:10:11.010Z,0.30
2018-01-16T18:13:11.974Z,0.30
2018-01-16T18:16:12.911Z,0.30
2018-01-16T18:19:13.967Z,0.30
2018-01-16T18:22:14.966Z,0.30
2018-01-16T18:25:16.108Z,0.37
2018-01-16T18:28:17.033Z,0.23
2018-01-16T18:31:18.051Z,0.37
2018-01-16T18:34:19.010Z,0.30
2018-01-16T18:37:20.028Z,0.40
2018-01-16T18:40:20.982Z,0.30
2018-01-16T18:43:22.023Z,0.20
2018-01-16T18:46:22.942Z,0.30
2018-01-16T18:49:23.920Z,0.30
2018-01-16T18:52:24.921Z,0.30
2018-01-16T18:55:25.887Z,0.30
2018-01-16T18:58:26.844Z,0.40
2018-01-16T19:01:27.831Z,0.30
2018-01-16T19:04:28.770Z,0.30
2018-01-16T19:07:29.772Z,0.40
2018-01-16T19:10:30.746Z,0.37
2018-01-16T19:13:31.691Z,0.40
2018-01-16T19:16:32.706Z,0.57
2018-01-16T19:19:33.682Z,0.30
2018-01-16T19:22:34.640Z,0.50
2018-01-16T19:25:35.639Z,0.27
2018-01-16T19:28:36.595Z,0.30
2018-01-16T19:31:37.607Z,0.43
2018-01-16T19:34:38.582Z,0.40
2018-01-16T19:37:39.503Z,0.30
2018-01-16T19:40:40.435Z,0.40
2018-01-16T19:43:41.454Z,0.40
2018-01-16T19:46:42.411Z,0.53
2018-01-16T19:49:44.428Z,0.40
2018-01-16T19:52:45.378Z,0.30
2018-01-16T19:55:46.375Z,0.43
2018-01-16T19:58:47.357Z,0.40
2018-01-16T20:01:48.327Z,1.07
2018-01-16T20:04:49.286Z,0.37
2018-01-16T20:07:50.573Z,0.50
2018-01-16T20:10:51.558Z,0.20
2018-01-16T20:13:52.518Z,0.30
2018-01-16T20:16:54.538Z,0.30
2018-01-16T20:19:55.491Z,0.50
2018-01-16T20:22:56.499Z,0.40
2018-01-16T20:25:57.464Z,0.60
2018-01-16T20:28:58.447Z,0.47
2018-01-16T20:31:59.410Z,0.60
2018-01-16T20:35:00.401Z,0.40
2018-01-16T20:38:01.375Z,0.80
2018-01-16T20:41:03.223Z,0.50
2018-01-16T20:44:04.126Z,0.40
2018-01-16T20:47:05.187Z,0.50
2018-01-16T20:50:06.106Z,0.50
2018-01-16T20:53:07.104Z,0.50
2018-01-16T20:56:08.046Z,0.40
2018-01-16T20:59:09.071Z,0.30
2018-01-16T21:02:09.994Z,0.50
2018-01-16T21:05:11.006Z,0.60
2018-01-16T21:08:11.927Z,0.47
2018-01-16T21:11:12.875Z,0.40
2018-01-16T21:14:13.822Z,0.33
2018-01-16T21:17:14.870Z,0.50
2018-01-16T21:20:15.825Z,0.30
2018-01-16T21:23:16.859Z,0.30
2018-01-16T21:26:17.846Z,0.50
2018-01-16T21:29:18.790Z,0.40
2018-01-16T21:32:19.715Z,0.50
2018-01-16T21:35:20.731Z,0.63
2018-01-16T21:38:21.735Z,0.30
2018-01-16T21:41:22.827Z,0.40
2018-01-16T21:44:23.807Z,0.40
2018-01-16T21:47:24.823Z,0.33
2018-01-16T21:50:26.039Z,0.30
2018-01-16T21:53:27.063Z,0.50
2018-01-16T21:56:27.982Z,0.40
2018-01-16T21:59:29.070Z,0.50
2018-01-16T22:02:30.083Z,0.30
2018-01-16T22:05:31.029Z,0.50
2018-01-16T22:08:32.054Z,0.40
2018-01-16T22:11:33.082Z,0.30
2018-01-16T22:14:34.350Z,0.40
2018-01-16T22:17:35.262Z,0.50
2018-01-16T22:20:36.269Z,0.53
2018-01-16T22:23:37.299Z,0.40
2018-01-16T22:26:38.255Z,0.40
2018-01-16T22:29:39.259Z,0.40
2018-01-16T22:32:40.810Z,0.30
2018-01-16T22:35:42.039Z,0.40
2018-01-16T22:38:42.998Z,0.40
2018-01-16T22:41:44.139Z,0.30
2018-01-16T22:44:45.088Z,0.40
2018-01-16T22:47:46.076Z,0.57
2018-01-16T22:50:47.041Z,0.30
2018-01-16T22:53:48.086Z,0.47
2018-01-16T22:56:49.087Z,0.40
2018-01-16T22:59:50.095Z,0.30
2018-01-16T23:02:51.048Z,0.40
2018-01-16T23:05:52.026Z,0.33
2018-01-16T23:08:52.975Z,0.70
2018-01-16T23:11:53.903Z,0.30
2018-01-16T23:14:54.867Z,0.63
2018-01-16T23:17:55.835Z,0.40
2018-01-16T23:20:56.804Z,0.50
2018-01-16T23:23:57.835Z,0.30
2018-01-16T23:26:58.749Z,0.37
2018-01-16T23:29:59.730Z,0.30
2018-01-16T23:33:00.687Z,0.47
2018-01-16T23:36:01.711Z,0.40
2018-01-16T23:39:02.683Z,0.40
2018-01-16T23:42:03.620Z,0.40
2018-01-16T23:45:04.635Z,0.67
2018-01-16T23:48:05.591Z,0.40
2018-01-16T23:51:06.554Z,0.50
2018-01-16T23:54:07.699Z,0.40
2018-01-16T23:57:08.710Z,0.53
